sensor_id;sensor_type;location;lat;lon;timestamp;P1;durP1;ratioP1;P2;durP2;ratioP2
38609;SDS011;24367;51.640;9.566;2023-08-21T00:00:46;10.20;;;5.82;;
38609;SDS011;24367;51.640;9.566;2023-08-21T00:03:13;6.25;;;5.63;;
38609;SDS011;24367;51.640;9.566;2023-08-21T00:05:39;7.25;;;5.28;;
38609;SDS011;24367;51.640;9.566;2023-08-21T00:08:06;6.13;;;4.93;;
38609;SDS011;24367;51.640;9.566;2023-08-21T00:10:32;5.80;;;5.05;;
38609;SDS011;24367;51.640;9.566;2023-08-21T00:12:58;6.90;;;5.05;;
38609;SDS011;24367;51.640;9.566;2023-08-21T00:15:26;8.07;;;5.05;;
38609;SDS011;24367;51.640;9.566;2023-08-21T00:17:53;7.50;;;5.03;;
38609;SDS011;24367;51.640;9.566;2023-08-21T00:20:19;7.63;;;5.55;;
38609;SDS011;24367;51.640;9.566;2023-08-21T00:22:46;10.05;;;5.30;;
38609;SDS011;24367;51.640;9.566;2023-08-21T00:25:12;7.60;;;5.30;;
38609;SDS011;24367;51.640;9.566;2023-08-21T00:27:39;6.60;;;4.85;;
38609;SDS011;24367;51.640;9.566;2023-08-21T00:30:06;6.50;;;4.95;;
38609;SDS011;24367;51.640;9.566;2023-08-21T00:32:34;6.82;;;4.10;;
38609;SDS011;24367;51.640;9.566;2023-08-21T00:35:01;7.53;;;4.70;;
38609;SDS011;24367;51.640;9.566;2023-08-21T00:37:27;5.32;;;4.30;;
38609;SDS011;24367;51.640;9.566;2023-08-21T00:39:54;5.25;;;4.50;;
38609;SDS011;24367;51.640;9.566;2023-08-21T00:42:21;9.75;;;4.72;;
38609;SDS011;24367;51.640;9.566;2023-08-21T00:44:47;8.52;;;4.40;;
38609;SDS011;24367;51.640;9.566;2023-08-21T00:47:14;7.15;;;4.13;;
38609;SDS011;24367;51.640;9.566;2023-08-21T00:49:42;4.88;;;4.35;;
38609;SDS011;24367;51.640;9.566;2023-08-21T00:52:09;6.53;;;4.45;;
38609;SDS011;24367;51.640;9.566;2023-08-21T00:54:37;4.93;;;4.25;;
38609;SDS011;24367;51.640;9.566;2023-08-21T00:57:05;7.00;;;4.03;;
38609;SDS011;24367;51.640;9.566;2023-08-21T00:59:31;5.57;;;4.07;;
38609;SDS011;24367;51.640;9.566;2023-08-21T01:01:57;9.23;;;4.55;;
38609;SDS011;24367;51.640;9.566;2023-08-21T01:04:24;7.63;;;3.92;;
38609;SDS011;24367;51.640;9.566;2023-08-21T01:06:52;7.30;;;4.03;;
38609;SDS011;24367;51.640;9.566;2023-08-21T01:09:20;9.05;;;3.80;;
38609;SDS011;24367;51.640;9.566;2023-08-21T01:11:50;5.05;;;3.80;;
38609;SDS011;24367;51.640;9.566;2023-08-21T01:14:21;6.55;;;3.40;;
38609;SDS011;24367;51.640;9.566;2023-08-21T01:16:53;5.30;;;3.20;;
38609;SDS011;24367;51.640;9.566;2023-08-21T01:19:25;8.77;;;3.50;;
38609;SDS011;24367;51.640;9.566;2023-08-21T01:21:54;5.57;;;3.60;;
38609;SDS011;24367;51.640;9.566;2023-08-21T01:24:22;4.53;;;3.40;;
38609;SDS011;24367;51.640;9.566;2023-08-21T01:26:49;7.22;;;3.60;;
38609;SDS011;24367;51.640;9.566;2023-08-21T01:29:15;6.20;;;3.30;;
38609;SDS011;24367;51.640;9.566;2023-08-21T01:31:42;4.70;;;3.45;;
38609;SDS011;24367;51.640;9.566;2023-08-21T01:34:13;5.38;;;2.95;;
38609;SDS011;24367;51.640;9.566;2023-08-21T01:36:40;6.20;;;3.35;;
38609;SDS011;24367;51.640;9.566;2023-08-21T01:39:08;7.65;;;3.05;;
38609;SDS011;24367;51.640;9.566;2023-08-21T01:41:37;4.63;;;2.63;;
38609;SDS011;24367;51.640;9.566;2023-08-21T01:44:03;5.15;;;3.03;;
38609;SDS011;24367;51.640;9.566;2023-08-21T01:46:30;5.55;;;2.95;;
38609;SDS011;24367;51.640;9.566;2023-08-21T01:48:56;5.50;;;3.05;;
38609;SDS011;24367;51.640;9.566;2023-08-21T01:51:23;6.28;;;3.25;;
38609;SDS011;24367;51.640;9.566;2023-08-21T01:53:49;5.63;;;2.97;;
38609;SDS011;24367;51.640;9.566;2023-08-21T01:56:16;6.95;;;3.05;;
38609;SDS011;24367;51.640;9.566;2023-08-21T01:58:43;6.00;;;2.90;;
38609;SDS011;24367;51.640;9.566;2023-08-21T02:01:11;7.30;;;2.78;;
38609;SDS011;24367;51.640;9.566;2023-08-21T02:03:39;6.57;;;3.03;;
38609;SDS011;24367;51.640;9.566;2023-08-21T02:06:06;5.85;;;2.88;;
38609;SDS011;24367;51.640;9.566;2023-08-21T02:08:33;4.32;;;2.45;;
38609;SDS011;24367;51.640;9.566;2023-08-21T02:10:59;6.70;;;2.90;;
38609;SDS011;24367;51.640;9.566;2023-08-21T02:13:26;3.85;;;2.40;;
38609;SDS011;24367;51.640;9.566;2023-08-21T02:15:54;5.28;;;2.85;;
38609;SDS011;24367;51.640;9.566;2023-08-21T02:18:20;7.22;;;2.80;;
38609;SDS011;24367;51.640;9.566;2023-08-21T02:20:47;5.20;;;2.20;;
38609;SDS011;24367;51.640;9.566;2023-08-21T02:23:14;4.68;;;2.78;;
38609;SDS011;24367;51.640;9.566;2023-08-21T02:25:40;7.82;;;2.53;;
38609;SDS011;24367;51.640;9.566;2023-08-21T02:28:07;7.30;;;2.63;;
38609;SDS011;24367;51.640;9.566;2023-08-21T02:30:34;6.45;;;2.45;;
38609;SDS011;24367;51.640;9.566;2023-08-21T02:33:01;6.05;;;2.28;;
38609;SDS011;24367;51.640;9.566;2023-08-21T02:35:28;6.20;;;2.30;;
38609;SDS011;24367;51.640;9.566;2023-08-21T02:37:54;4.97;;;2.33;;
38609;SDS011;24367;51.640;9.566;2023-08-21T02:40:21;5.63;;;1.88;;
38609;SDS011;24367;51.640;9.566;2023-08-21T02:42:47;7.60;;;2.45;;
38609;SDS011;24367;51.640;9.566;2023-08-21T02:45:14;3.70;;;2.20;;
38609;SDS011;24367;51.640;9.566;2023-08-21T02:47:42;4.10;;;2.25;;
38609;SDS011;24367;51.640;9.566;2023-08-21T02:50:10;9.10;;;2.67;;
38609;SDS011;24367;51.640;9.566;2023-08-21T02:52:37;5.63;;;2.25;;
38609;SDS011;24367;51.640;9.566;2023-08-21T02:55:03;6.57;;;2.42;;
38609;SDS011;24367;51.640;9.566;2023-08-21T02:57:31;4.90;;;2.30;;
38609;SDS011;24367;51.640;9.566;2023-08-21T02:59:57;4.10;;;2.13;;
38609;SDS011;24367;51.640;9.566;2023-08-21T03:02:24;6.05;;;2.20;;
38609;SDS011;24367;51.640;9.566;2023-08-21T03:04:51;5.40;;;2.08;;
38609;SDS011;24367;51.640;9.566;2023-08-21T03:07:19;5.88;;;2.38;;
38609;SDS011;24367;51.640;9.566;2023-08-21T03:09:45;5.03;;;2.22;;
38609;SDS011;24367;51.640;9.566;2023-08-21T03:12:13;5.68;;;2.10;;
38609;SDS011;24367;51.640;9.566;2023-08-21T03:14:39;5.18;;;2.13;;
38609;SDS011;24367;51.640;9.566;2023-08-21T03:17:05;6.43;;;2.47;;
38609;SDS011;24367;51.640;9.566;2023-08-21T03:19:32;4.53;;;2.25;;
38609;SDS011;24367;51.640;9.566;2023-08-21T03:21:58;3.47;;;2.10;;
38609;SDS011;24367;51.640;9.566;2023-08-21T03:24:26;4.22;;;2.00;;
38609;SDS011;24367;51.640;9.566;2023-08-21T03:26:53;6.05;;;2.25;;
38609;SDS011;24367;51.640;9.566;2023-08-21T03:29:20;5.47;;;2.63;;
38609;SDS011;24367;51.640;9.566;2023-08-21T03:31:49;5.85;;;2.05;;
38609;SDS011;24367;51.640;9.566;2023-08-21T03:34:16;6.60;;;2.38;;
38609;SDS011;24367;51.640;9.566;2023-08-21T03:36:43;5.53;;;2.13;;
38609;SDS011;24367;51.640;9.566;2023-08-21T03:39:09;5.60;;;1.95;;
38609;SDS011;24367;51.640;9.566;2023-08-21T03:41:43;4.65;;;2.38;;
38609;SDS011;24367;51.640;9.566;2023-08-21T03:44:09;5.72;;;2.22;;
38609;SDS011;24367;51.640;9.566;2023-08-21T03:46:37;3.80;;;2.15;;
38609;SDS011;24367;51.640;9.566;2023-08-21T03:49:03;4.28;;;1.80;;
38609;SDS011;24367;51.640;9.566;2023-08-21T03:51:31;4.97;;;1.73;;
38609;SDS011;24367;51.640;9.566;2023-08-21T03:53:58;3.97;;;1.77;;
38609;SDS011;24367;51.640;9.566;2023-08-21T03:56:24;5.45;;;2.05;;
38609;SDS011;24367;51.640;9.566;2023-08-21T03:58:54;3.85;;;2.10;;
38609;SDS011;24367;51.640;9.566;2023-08-21T04:01:21;3.25;;;2.13;;
38609;SDS011;24367;51.640;9.566;2023-08-21T04:03:47;4.68;;;2.00;;
38609;SDS011;24367;51.640;9.566;2023-08-21T04:06:14;7.78;;;2.42;;
38609;SDS011;24367;51.640;9.566;2023-08-21T04:08:40;3.47;;;1.65;;
38609;SDS011;24367;51.640;9.566;2023-08-21T04:11:06;6.63;;;2.00;;
38609;SDS011;24367;51.640;9.566;2023-08-21T04:13:33;4.13;;;2.00;;
38609;SDS011;24367;51.640;9.566;2023-08-21T04:16:01;4.07;;;1.70;;
38609;SDS011;24367;51.640;9.566;2023-08-21T04:18:27;5.53;;;1.70;;
38609;SDS011;24367;51.640;9.566;2023-08-21T04:20:54;5.05;;;1.63;;
38609;SDS011;24367;51.640;9.566;2023-08-21T04:23:20;8.40;;;2.30;;
38609;SDS011;24367;51.640;9.566;2023-08-21T04:25:47;6.07;;;2.00;;
38609;SDS011;24367;51.640;9.566;2023-08-21T04:28:13;4.60;;;1.73;;
38609;SDS011;24367;51.640;9.566;2023-08-21T04:30:40;4.95;;;1.55;;
38609;SDS011;24367;51.640;9.566;2023-08-21T04:33:09;3.95;;;1.50;;
38609;SDS011;24367;51.640;9.566;2023-08-21T04:35:36;4.80;;;1.50;;
38609;SDS011;24367;51.640;9.566;2023-08-21T04:38:04;7.72;;;1.65;;
38609;SDS011;24367;51.640;9.566;2023-08-21T04:40:32;6.82;;;1.55;;
38609;SDS011;24367;51.640;9.566;2023-08-21T04:42:59;6.93;;;1.98;;
38609;SDS011;24367;51.640;9.566;2023-08-21T04:45:26;9.40;;;2.08;;
38609;SDS011;24367;51.640;9.566;2023-08-21T04:47:52;6.90;;;1.98;;
38609;SDS011;24367;51.640;9.566;2023-08-21T04:50:21;6.10;;;1.52;;
38609;SDS011;24367;51.640;9.566;2023-08-21T04:52:48;9.45;;;1.90;;
38609;SDS011;24367;51.640;9.566;2023-08-21T04:55:15;3.33;;;1.60;;
38609;SDS011;24367;51.640;9.566;2023-08-21T04:57:42;8.55;;;1.77;;
38609;SDS011;24367;51.640;9.566;2023-08-21T05:00:11;7.75;;;2.28;;
38609;SDS011;24367;51.640;9.566;2023-08-21T05:02:40;5.65;;;2.17;;
38609;SDS011;24367;51.640;9.566;2023-08-21T05:05:07;5.82;;;2.13;;
38609;SDS011;24367;51.640;9.566;2023-08-21T05:07:36;4.75;;;1.83;;
38609;SDS011;24367;51.640;9.566;2023-08-21T05:10:04;6.82;;;1.85;;
38609;SDS011;24367;51.640;9.566;2023-08-21T05:12:33;7.60;;;1.95;;
38609;SDS011;24367;51.640;9.566;2023-08-21T05:15:01;7.15;;;1.77;;
38609;SDS011;24367;51.640;9.566;2023-08-21T05:17:28;10.55;;;1.85;;
38609;SDS011;24367;51.640;9.566;2023-08-21T05:19:56;8.23;;;2.00;;
38609;SDS011;24367;51.640;9.566;2023-08-21T05:22:22;6.15;;;1.83;;
38609;SDS011;24367;51.640;9.566;2023-08-21T05:24:50;12.35;;;2.10;;
38609;SDS011;24367;51.640;9.566;2023-08-21T05:27:17;7.13;;;2.15;;
38609;SDS011;24367;51.640;9.566;2023-08-21T05:29:43;7.18;;;2.10;;
38609;SDS011;24367;51.640;9.566;2023-08-21T05:32:10;8.98;;;2.25;;
38609;SDS011;24367;51.640;9.566;2023-08-21T05:34:37;7.63;;;2.10;;
38609;SDS011;24367;51.640;9.566;2023-08-21T05:37:03;7.80;;;2.10;;
38609;SDS011;24367;51.640;9.566;2023-08-21T05:39:30;4.40;;;1.77;;
38609;SDS011;24367;51.640;9.566;2023-08-21T05:41:58;8.48;;;2.47;;
38609;SDS011;24367;51.640;9.566;2023-08-21T05:44:24;6.35;;;2.22;;
38609;SDS011;24367;51.640;9.566;2023-08-21T05:46:52;7.95;;;1.95;;
38609;SDS011;24367;51.640;9.566;2023-08-21T05:49:19;6.13;;;1.90;;
38609;SDS011;24367;51.640;9.566;2023-08-21T05:51:46;6.63;;;2.13;;
38609;SDS011;24367;51.640;9.566;2023-08-21T05:54:12;5.88;;;1.80;;
38609;SDS011;24367;51.640;9.566;2023-08-21T05:56:40;5.28;;;2.40;;
38609;SDS011;24367;51.640;9.566;2023-08-21T05:59:10;7.35;;;2.05;;
38609;SDS011;24367;51.640;9.566;2023-08-21T06:01:37;6.13;;;2.38;;
38609;SDS011;24367;51.640;9.566;2023-08-21T06:04:04;7.60;;;2.17;;
38609;SDS011;24367;51.640;9.566;2023-08-21T06:06:42;5.40;;;2.15;;
38609;SDS011;24367;51.640;9.566;2023-08-21T06:09:09;7.95;;;2.08;;
38609;SDS011;24367;51.640;9.566;2023-08-21T06:11:36;6.28;;;1.85;;
38609;SDS011;24367;51.640;9.566;2023-08-21T06:14:04;11.63;;;2.17;;
38609;SDS011;24367;51.640;9.566;2023-08-21T06:16:31;5.47;;;2.00;;
38609;SDS011;24367;51.640;9.566;2023-08-21T06:18:58;7.88;;;3.10;;
38609;SDS011;24367;51.640;9.566;2023-08-21T06:21:25;7.50;;;2.55;;
38609;SDS011;24367;51.640;9.566;2023-08-21T06:23:51;6.10;;;2.25;;
38609;SDS011;24367;51.640;9.566;2023-08-21T06:26:18;4.50;;;1.95;;
38609;SDS011;24367;51.640;9.566;2023-08-21T06:28:45;7.15;;;2.47;;
38609;SDS011;24367;51.640;9.566;2023-08-21T06:31:13;5.95;;;2.30;;
38609;SDS011;24367;51.640;9.566;2023-08-21T06:33:42;5.70;;;2.25;;
38609;SDS011;24367;51.640;9.566;2023-08-21T06:36:09;5.95;;;2.10;;
38609;SDS011;24367;51.640;9.566;2023-08-21T06:38:36;14.65;;;2.42;;
38609;SDS011;24367;51.640;9.566;2023-08-21T06:41:02;5.90;;;2.20;;
38609;SDS011;24367;51.640;9.566;2023-08-21T06:43:29;5.55;;;2.25;;
38609;SDS011;24367;51.640;9.566;2023-08-21T06:45:56;6.13;;;2.20;;
38609;SDS011;24367;51.640;9.566;2023-08-21T06:48:23;5.30;;;2.30;;
38609;SDS011;24367;51.640;9.566;2023-08-21T06:50:51;7.65;;;2.47;;
38609;SDS011;24367;51.640;9.566;2023-08-21T06:53:18;6.88;;;2.30;;
38609;SDS011;24367;51.640;9.566;2023-08-21T06:55:44;6.43;;;2.17;;
38609;SDS011;24367;51.640;9.566;2023-08-21T06:58:11;4.95;;;2.60;;
38609;SDS011;24367;51.640;9.566;2023-08-21T07:00:38;5.57;;;1.85;;
38609;SDS011;24367;51.640;9.566;2023-08-21T07:03:04;4.30;;;2.03;;
38609;SDS011;24367;51.640;9.566;2023-08-21T07:05:32;7.00;;;2.70;;
38609;SDS011;24367;51.640;9.566;2023-08-21T07:08:00;7.25;;;2.50;;
38609;SDS011;24367;51.640;9.566;2023-08-21T07:10:26;7.63;;;2.00;;
38609;SDS011;24367;51.640;9.566;2023-08-21T07:12:54;6.25;;;2.42;;
38609;SDS011;24367;51.640;9.566;2023-08-21T07:15:20;6.22;;;2.50;;
38609;SDS011;24367;51.640;9.566;2023-08-21T07:17:48;5.15;;;2.30;;
38609;SDS011;24367;51.640;9.566;2023-08-21T07:20:15;4.15;;;2.10;;
38609;SDS011;24367;51.640;9.566;2023-08-21T07:22:42;9.73;;;2.25;;
38609;SDS011;24367;51.640;9.566;2023-08-21T07:25:10;6.38;;;2.20;;
38609;SDS011;24367;51.640;9.566;2023-08-21T07:27:36;5.63;;;2.20;;
38609;SDS011;24367;51.640;9.566;2023-08-21T07:30:03;6.93;;;2.70;;
38609;SDS011;24367;51.640;9.566;2023-08-21T07:32:30;5.70;;;2.38;;
38609;SDS011;24367;51.640;9.566;2023-08-21T07:34:56;6.15;;;2.30;;
38609;SDS011;24367;51.640;9.566;2023-08-21T07:37:23;9.75;;;2.72;;
38609;SDS011;24367;51.640;9.566;2023-08-21T07:39:49;7.57;;;2.67;;
38609;SDS011;24367;51.640;9.566;2023-08-21T07:42:17;4.63;;;2.38;;
38609;SDS011;24367;51.640;9.566;2023-08-21T07:44:44;4.97;;;2.55;;
38609;SDS011;24367;51.640;9.566;2023-08-21T07:47:11;8.10;;;2.88;;
38609;SDS011;24367;51.640;9.566;2023-08-21T07:49:37;4.93;;;2.65;;
38609;SDS011;24367;51.640;9.566;2023-08-21T07:52:04;5.13;;;2.58;;
38609;SDS011;24367;51.640;9.566;2023-08-21T07:54:31;6.25;;;2.53;;
38609;SDS011;24367;51.640;9.566;2023-08-21T07:56:57;4.80;;;2.50;;
38609;SDS011;24367;51.640;9.566;2023-08-21T07:59:25;5.45;;;2.85;;
38609;SDS011;24367;51.640;9.566;2023-08-21T08:01:52;4.18;;;2.30;;
38609;SDS011;24367;51.640;9.566;2023-08-21T08:04:18;6.30;;;2.25;;
38609;SDS011;24367;51.640;9.566;2023-08-21T08:06:45;8.23;;;2.97;;
38609;SDS011;24367;51.640;9.566;2023-08-21T08:09:12;4.32;;;2.50;;
38609;SDS011;24367;51.640;9.566;2023-08-21T08:11:38;5.65;;;2.38;;
38609;SDS011;24367;51.640;9.566;2023-08-21T08:14:05;7.25;;;2.65;;
38609;SDS011;24367;51.640;9.566;2023-08-21T08:16:32;5.03;;;2.10;;
38609;SDS011;24367;51.640;9.566;2023-08-21T08:18:59;4.80;;;2.25;;
38609;SDS011;24367;51.640;9.566;2023-08-21T08:21:25;5.38;;;2.50;;
38609;SDS011;24367;51.640;9.566;2023-08-21T08:23:52;3.15;;;2.50;;
38609;SDS011;24367;51.640;9.566;2023-08-21T08:26:18;4.95;;;1.92;;
38609;SDS011;24367;51.640;9.566;2023-08-21T08:28:45;6.25;;;2.50;;
38609;SDS011;24367;51.640;9.566;2023-08-21T08:31:15;10.25;;;2.28;;
38609;SDS011;24367;51.640;9.566;2023-08-21T08:33:42;6.55;;;2.33;;
38609;SDS011;24367;51.640;9.566;2023-08-21T08:36:09;6.45;;;2.55;;
38609;SDS011;24367;51.640;9.566;2023-08-21T08:38:35;5.90;;;1.95;;
38609;SDS011;24367;51.640;9.566;2023-08-21T08:41:02;4.07;;;2.15;;
38609;SDS011;24367;51.640;9.566;2023-08-21T08:43:31;3.83;;;2.45;;
38609;SDS011;24367;51.640;9.566;2023-08-21T08:46:01;3.85;;;1.90;;
38609;SDS011;24367;51.640;9.566;2023-08-21T08:48:28;4.15;;;1.92;;
38609;SDS011;24367;51.640;9.566;2023-08-21T08:50:56;3.85;;;2.20;;
38609;SDS011;24367;51.640;9.566;2023-08-21T08:53:22;3.70;;;2.17;;
38609;SDS011;24367;51.640;9.566;2023-08-21T08:55:49;4.72;;;2.42;;
38609;SDS011;24367;51.640;9.566;2023-08-21T08:58:16;3.40;;;2.10;;
38609;SDS011;24367;51.640;9.566;2023-08-21T09:00:42;4.63;;;1.90;;
38609;SDS011;24367;51.640;9.566;2023-08-21T09:03:09;3.80;;;1.80;;
38609;SDS011;24367;51.640;9.566;2023-08-21T09:05:38;4.00;;;2.00;;
38609;SDS011;24367;51.640;9.566;2023-08-21T09:08:12;4.95;;;2.10;;
38609;SDS011;24367;51.640;9.566;2023-08-21T09:13:11;4.22;;;2.08;;
38609;SDS011;24367;51.640;9.566;2023-08-21T09:15:38;3.55;;;2.42;;
38609;SDS011;24367;51.640;9.566;2023-08-21T09:18:04;3.38;;;2.38;;
38609;SDS011;24367;51.640;9.566;2023-08-21T09:20:35;4.43;;;1.90;;
38609;SDS011;24367;51.640;9.566;2023-08-21T09:23:02;3.05;;;2.10;;
38609;SDS011;24367;51.640;9.566;2023-08-21T09:25:34;2.88;;;1.73;;
38609;SDS011;24367;51.640;9.566;2023-08-21T09:28:01;3.42;;;2.20;;
38609;SDS011;24367;51.640;9.566;2023-08-21T09:30:35;3.88;;;1.85;;
38609;SDS011;24367;51.640;9.566;2023-08-21T09:33:09;4.40;;;1.80;;
38609;SDS011;24367;51.640;9.566;2023-08-21T09:35:36;4.13;;;1.90;;
38609;SDS011;24367;51.640;9.566;2023-08-21T09:38:02;4.35;;;2.00;;
38609;SDS011;24367;51.640;9.566;2023-08-21T09:40:29;4.70;;;1.98;;
38609;SDS011;24367;51.640;9.566;2023-08-21T09:42:57;2.85;;;1.77;;
38609;SDS011;24367;51.640;9.566;2023-08-21T09:45:25;3.83;;;1.73;;
38609;SDS011;24367;51.640;9.566;2023-08-21T09:47:52;2.75;;;1.70;;
38609;SDS011;24367;51.640;9.566;2023-08-21T09:50:19;4.40;;;1.95;;
38609;SDS011;24367;51.640;9.566;2023-08-21T09:52:45;3.35;;;1.67;;
38609;SDS011;24367;51.640;9.566;2023-08-21T09:55:12;3.75;;;2.20;;
38609;SDS011;24367;51.640;9.566;2023-08-21T09:57:40;3.33;;;1.98;;
38609;SDS011;24367;51.640;9.566;2023-08-21T10:00:08;3.10;;;2.03;;
38609;SDS011;24367;51.640;9.566;2023-08-21T10:02:41;4.07;;;2.00;;
38609;SDS011;24367;51.640;9.566;2023-08-21T10:05:10;3.88;;;1.90;;
38609;SDS011;24367;51.640;9.566;2023-08-21T10:07:36;3.10;;;1.88;;
38609;SDS011;24367;51.640;9.566;2023-08-21T10:10:03;2.65;;;1.60;;
38609;SDS011;24367;51.640;9.566;2023-08-21T10:12:30;4.10;;;2.03;;
38609;SDS011;24367;51.640;9.566;2023-08-21T10:14:57;3.13;;;1.70;;
38609;SDS011;24367;51.640;9.566;2023-08-21T10:17:25;2.45;;;1.60;;
38609;SDS011;24367;51.640;9.566;2023-08-21T10:19:51;3.25;;;1.70;;
38609;SDS011;24367;51.640;9.566;2023-08-21T10:25:13;3.75;;;1.88;;
38609;SDS011;24367;51.640;9.566;2023-08-21T10:27:41;2.85;;;1.60;;
38609;SDS011;24367;51.640;9.566;2023-08-21T10:30:12;3.75;;;1.90;;
38609;SDS011;24367;51.640;9.566;2023-08-21T10:32:45;3.08;;;2.00;;
38609;SDS011;24367;51.640;9.566;2023-08-21T10:35:14;3.67;;;1.83;;
38609;SDS011;24367;51.640;9.566;2023-08-21T10:40:34;2.78;;;1.60;;
38609;SDS011;24367;51.640;9.566;2023-08-21T10:43:01;3.75;;;1.70;;
38609;SDS011;24367;51.640;9.566;2023-08-21T10:45:28;3.28;;;1.65;;
38609;SDS011;24367;51.640;9.566;2023-08-21T10:47:57;2.92;;;1.88;;
38609;SDS011;24367;51.640;9.566;2023-08-21T10:50:24;2.70;;;1.65;;
38609;SDS011;24367;51.640;9.566;2023-08-21T10:52:51;3.03;;;1.77;;
38609;SDS011;24367;51.640;9.566;2023-08-21T10:55:18;2.75;;;1.67;;
38609;SDS011;24367;51.640;9.566;2023-08-21T10:57:46;3.20;;;1.52;;
38609;SDS011;24367;51.640;9.566;2023-08-21T11:00:14;3.60;;;2.33;;
38609;SDS011;24367;51.640;9.566;2023-08-21T11:02:42;2.90;;;1.88;;
38609;SDS011;24367;51.640;9.566;2023-08-21T11:05:11;2.90;;;1.90;;
38609;SDS011;24367;51.640;9.566;2023-08-21T11:07:38;4.05;;;2.13;;
38609;SDS011;24367;51.640;9.566;2023-08-21T11:10:06;2.50;;;1.75;;
38609;SDS011;24367;51.640;9.566;2023-08-21T11:12:33;1.92;;;1.20;;
38609;SDS011;24367;51.640;9.566;2023-08-21T11:15:01;3.78;;;1.73;;
38609;SDS011;24367;51.640;9.566;2023-08-21T11:17:28;2.90;;;1.70;;
38609;SDS011;24367;51.640;9.566;2023-08-21T11:19:54;2.22;;;1.73;;
38609;SDS011;24367;51.640;9.566;2023-08-21T11:22:29;2.60;;;1.90;;
38609;SDS011;24367;51.640;9.566;2023-08-21T11:24:57;1.90;;;1.42;;
38609;SDS011;24367;51.640;9.566;2023-08-21T11:27:24;3.75;;;1.88;;
38609;SDS011;24367;51.640;9.566;2023-08-21T11:29:51;2.75;;;1.60;;
38609;SDS011;24367;51.640;9.566;2023-08-21T11:32:18;2.50;;;1.73;;
38609;SDS011;24367;51.640;9.566;2023-08-21T11:34:47;2.90;;;1.73;;
38609;SDS011;24367;51.640;9.566;2023-08-21T11:37:15;2.88;;;1.98;;
38609;SDS011;24367;51.640;9.566;2023-08-21T11:39:44;2.63;;;1.67;;
38609;SDS011;24367;51.640;9.566;2023-08-21T11:42:12;2.45;;;1.60;;
38609;SDS011;24367;51.640;9.566;2023-08-21T11:44:39;2.78;;;1.75;;
38609;SDS011;24367;51.640;9.566;2023-08-21T11:47:10;2.20;;;1.42;;
38609;SDS011;24367;51.640;9.566;2023-08-21T11:49:37;1.85;;;1.25;;
38609;SDS011;24367;51.640;9.566;2023-08-21T11:52:04;2.67;;;1.52;;
38609;SDS011;24367;51.640;9.566;2023-08-21T11:54:34;2.90;;;1.60;;
38609;SDS011;24367;51.640;9.566;2023-08-21T11:57:05;2.95;;;1.77;;
38609;SDS011;24367;51.640;9.566;2023-08-21T11:59:31;2.15;;;1.60;;
38609;SDS011;24367;51.640;9.566;2023-08-21T12:01:58;2.42;;;1.50;;
38609;SDS011;24367;51.640;9.566;2023-08-21T12:04:25;3.03;;;1.70;;
38609;SDS011;24367;51.640;9.566;2023-08-21T12:06:52;3.20;;;1.70;;
38609;SDS011;24367;51.640;9.566;2023-08-21T12:09:18;2.55;;;1.83;;
38609;SDS011;24367;51.640;9.566;2023-08-21T12:11:45;3.15;;;1.95;;
38609;SDS011;24367;51.640;9.566;2023-08-21T12:14:13;3.00;;;1.75;;
38609;SDS011;24367;51.640;9.566;2023-08-21T12:16:39;3.95;;;1.70;;
38609;SDS011;24367;51.640;9.566;2023-08-21T12:19:06;2.67;;;1.60;;
38609;SDS011;24367;51.640;9.566;2023-08-21T12:21:34;2.40;;;1.60;;
38609;SDS011;24367;51.640;9.566;2023-08-21T12:24:03;3.45;;;1.50;;
38609;SDS011;24367;51.640;9.566;2023-08-21T12:26:30;2.65;;;1.75;;
38609;SDS011;24367;51.640;9.566;2023-08-21T12:28:57;3.30;;;1.55;;
38609;SDS011;24367;51.640;9.566;2023-08-21T12:31:24;2.47;;;1.60;;
38609;SDS011;24367;51.640;9.566;2023-08-21T12:33:51;2.60;;;1.70;;
38609;SDS011;24367;51.640;9.566;2023-08-21T12:36:17;2.63;;;1.55;;
38609;SDS011;24367;51.640;9.566;2023-08-21T12:38:44;2.45;;;1.52;;
38609;SDS011;24367;51.640;9.566;2023-08-21T12:41:11;2.85;;;1.70;;
38609;SDS011;24367;51.640;9.566;2023-08-21T12:43:37;2.40;;;1.40;;
38609;SDS011;24367;51.640;9.566;2023-08-21T12:46:04;2.40;;;1.60;;
38609;SDS011;24367;51.640;9.566;2023-08-21T12:48:32;2.55;;;1.65;;
38609;SDS011;24367;51.640;9.566;2023-08-21T12:50:59;2.30;;;1.60;;
38609;SDS011;24367;51.640;9.566;2023-08-21T12:53:25;3.22;;;1.67;;
38609;SDS011;24367;51.640;9.566;2023-08-21T12:55:51;2.85;;;1.60;;
38609;SDS011;24367;51.640;9.566;2023-08-21T12:58:18;2.67;;;1.63;;
38609;SDS011;24367;51.640;9.566;2023-08-21T13:00:44;3.22;;;1.60;;
38609;SDS011;24367;51.640;9.566;2023-08-21T13:03:11;2.00;;;1.30;;
38609;SDS011;24367;51.640;9.566;2023-08-21T13:05:39;2.38;;;1.63;;
38609;SDS011;24367;51.640;9.566;2023-08-21T13:08:05;2.00;;;1.65;;
38609;SDS011;24367;51.640;9.566;2023-08-21T13:10:32;2.67;;;1.80;;
38609;SDS011;24367;51.640;9.566;2023-08-21T13:12:58;2.20;;;1.30;;
38609;SDS011;24367;51.640;9.566;2023-08-21T13:15:25;2.47;;;1.77;;
38609;SDS011;24367;51.640;9.566;2023-08-21T13:17:51;2.13;;;1.58;;
38609;SDS011;24367;51.640;9.566;2023-08-21T13:20:17;2.45;;;1.45;;
38609;SDS011;24367;51.640;9.566;2023-08-21T13:22:46;2.45;;;1.40;;
38609;SDS011;24367;51.640;9.566;2023-08-21T13:25:13;3.08;;;1.52;;
38609;SDS011;24367;51.640;9.566;2023-08-21T13:27:40;2.65;;;1.50;;
38609;SDS011;24367;51.640;9.566;2023-08-21T13:30:07;2.72;;;1.60;;
38609;SDS011;24367;51.640;9.566;2023-08-21T13:32:34;2.53;;;1.40;;
38609;SDS011;24367;51.640;9.566;2023-08-21T13:35:01;2.47;;;1.42;;
38609;SDS011;24367;51.640;9.566;2023-08-21T13:37:29;2.65;;;1.73;;
38609;SDS011;24367;51.640;9.566;2023-08-21T13:39:57;3.28;;;1.70;;
38609;SDS011;24367;51.640;9.566;2023-08-21T13:42:25;2.58;;;1.70;;
38609;SDS011;24367;51.640;9.566;2023-08-21T13:44:55;3.13;;;1.63;;
38609;SDS011;24367;51.640;9.566;2023-08-21T13:47:21;2.65;;;1.52;;
38609;SDS011;24367;51.640;9.566;2023-08-21T13:49:48;2.40;;;1.60;;
38609;SDS011;24367;51.640;9.566;2023-08-21T13:52:15;3.05;;;1.42;;
38609;SDS011;24367;51.640;9.566;2023-08-21T13:54:42;2.15;;;1.52;;
38609;SDS011;24367;51.640;9.566;2023-08-21T13:57:09;2.33;;;1.60;;
38609;SDS011;24367;51.640;9.566;2023-08-21T13:59:36;2.45;;;1.52;;
38609;SDS011;24367;51.640;9.566;2023-08-21T14:02:02;2.20;;;1.52;;
38609;SDS011;24367;51.640;9.566;2023-08-21T14:04:29;2.40;;;1.58;;
38609;SDS011;24367;51.640;9.566;2023-08-21T14:06:56;2.35;;;1.77;;
38609;SDS011;24367;51.640;9.566;2023-08-21T14:09:22;2.55;;;1.80;;
38609;SDS011;24367;51.640;9.566;2023-08-21T14:11:49;2.35;;;1.70;;
38609;SDS011;24367;51.640;9.566;2023-08-21T14:14:16;3.55;;;1.77;;
38609;SDS011;24367;51.640;9.566;2023-08-21T14:16:43;2.97;;;1.88;;
38609;SDS011;24367;51.640;9.566;2023-08-21T14:19:09;3.05;;;1.77;;
38609;SDS011;24367;51.640;9.566;2023-08-21T14:21:36;2.97;;;1.92;;
38609;SDS011;24367;51.640;9.566;2023-08-21T14:24:02;3.22;;;1.83;;
38609;SDS011;24367;51.640;9.566;2023-08-21T14:26:29;2.72;;;1.77;;
38609;SDS011;24367;51.640;9.566;2023-08-21T14:28:55;4.10;;;1.70;;
38609;SDS011;24367;51.640;9.566;2023-08-21T14:31:23;2.03;;;1.40;;
38609;SDS011;24367;51.640;9.566;2023-08-21T14:33:50;2.45;;;1.58;;
38609;SDS011;24367;51.640;9.566;2023-08-21T14:36:16;3.33;;;1.90;;
38609;SDS011;24367;51.640;9.566;2023-08-21T14:38:43;2.35;;;1.70;;
38609;SDS011;24367;51.640;9.566;2023-08-21T14:41:10;4.15;;;2.10;;
38609;SDS011;24367;51.640;9.566;2023-08-21T14:43:36;3.50;;;1.60;;
38609;SDS011;24367;51.640;9.566;2023-08-21T14:46:02;4.03;;;1.92;;
38609;SDS011;24367;51.640;9.566;2023-08-21T14:48:31;2.25;;;1.70;;
38609;SDS011;24367;51.640;9.566;2023-08-21T14:50:58;5.05;;;1.73;;
38609;SDS011;24367;51.640;9.566;2023-08-21T14:53:24;3.60;;;2.00;;
38609;SDS011;24367;51.640;9.566;2023-08-21T14:55:51;4.43;;;1.65;;